createdAt,value
2018-07-10T00:02:21.048Z,6.03
2018-07-10T00:07:07.318Z,7.67
2018-07-10T00:09:52.907Z,13.20
2018-07-10T00:12:21.170Z,6.10
2018-07-10T00:14:49.330Z,5.17
2018-07-10T00:17:17.522Z,6.57
2018-07-10T00:19:45.706Z,6.20
2018-07-10T00:22:14.670Z,6.27
2018-07-10T00:24:42.869Z,3.23
2018-07-10T00:27:11.052Z,9.10
2018-07-10T00:29:39.257Z,6.20
2018-07-10T00:32:07.487Z,3.73
2018-07-10T00:34:35.688Z,8.80
2018-07-10T00:37:03.885Z,4.83
2018-07-10T00:39:32.131Z,4.80
2018-07-10T00:42:00.349Z,5.97
2018-07-10T00:44:28.271Z,3.07
2018-07-10T00:46:56.488Z,6.40
2018-07-10T00:49:24.422Z,3.03
2018-07-10T00:51:52.608Z,3.70
2018-07-10T00:54:20.796Z,4.07
2018-07-10T00:56:48.728Z,5.90
2018-07-10T00:59:16.934Z,4.10
2018-07-10T01:01:45.120Z,6.40
2018-07-10T01:04:13.075Z,6.00
2018-07-10T01:06:41.261Z,9.83
2018-07-10T01:09:12.360Z,12.23
2018-07-10T01:11:40.632Z,4.80
2018-07-10T01:14:08.851Z,5.30
2018-07-10T01:16:43.451Z,4.23
2018-07-10T01:19:13.894Z,12.17
2018-07-10T01:21:42.597Z,12.23
2018-07-10T01:24:11.780Z,7.50
2018-07-10T01:26:40.599Z,4.87
2018-07-10T01:29:21.461Z,8.73
2018-07-10T01:31:51.352Z,4.10
2018-07-10T01:34:19.549Z,3.03
2018-07-10T01:36:47.750Z,5.07
2018-07-10T01:39:15.952Z,5.20
2018-07-10T01:41:44.175Z,2.13
2018-07-10T01:44:12.357Z,3.90
2018-07-10T01:46:40.597Z,5.47
2018-07-10T01:49:08.800Z,8.23
2018-07-10T01:51:36.987Z,6.23
2018-07-10T01:54:05.178Z,4.10
2018-07-10T01:56:33.378Z,2.50
2018-07-10T01:59:01.892Z,4.60
2018-07-10T02:01:30.092Z,6.80
2018-07-10T02:03:59.169Z,6.40
2018-07-10T02:06:27.736Z,6.00
2018-07-10T02:08:55.963Z,2.30
2018-07-10T02:11:24.278Z,9.97
2018-07-10T02:13:52.251Z,6.50
2018-07-10T02:16:20.407Z,6.07
2018-07-10T02:18:48.897Z,5.77
2018-07-10T02:21:17.104Z,6.47
2018-07-10T02:23:46.103Z,3.40
2018-07-10T02:26:18.569Z,3.47
2018-07-10T02:28:47.254Z,4.07
2018-07-10T02:31:15.455Z,1.67
2018-07-10T02:33:43.649Z,8.73
2018-07-10T02:36:11.832Z,5.57
2018-07-10T02:38:43.491Z,11.57
2018-07-10T02:41:13.441Z,8.20
2018-07-10T02:43:42.648Z,6.70
2018-07-10T02:46:10.859Z,7.77
2018-07-10T02:48:39.039Z,6.60
2018-07-10T02:51:07.983Z,5.00
2018-07-10T02:53:38.484Z,10.23
2018-07-10T02:56:07.879Z,7.17
2018-07-10T02:58:36.112Z,8.47
2018-07-10T03:01:05.105Z,8.13
2018-07-10T03:03:34.392Z,7.30
2018-07-10T03:06:02.887Z,5.40
2018-07-10T03:08:31.091Z,4.50
2018-07-10T03:10:59.289Z,2.57
2018-07-10T03:13:27.224Z,5.97
2018-07-10T03:15:55.500Z,6.27
2018-07-10T03:18:23.767Z,8.60
2018-07-10T03:20:52.087Z,3.03
2018-07-10T03:23:20.034Z,5.20
2018-07-10T03:25:48.223Z,2.40
2018-07-10T03:28:16.163Z,4.10
2018-07-10T03:30:44.356Z,4.30
2018-07-10T03:33:12.579Z,7.30
2018-07-10T03:35:40.764Z,7.93
2018-07-10T03:38:08.982Z,9.90
2018-07-10T03:40:36.943Z,9.83
2018-07-10T03:43:05.507Z,13.47
2018-07-10T03:45:33.682Z,5.30
2018-07-10T03:48:01.873Z,8.93
2018-07-10T03:50:30.384Z,3.30
2018-07-10T03:52:58.559Z,4.13
2018-07-10T03:55:26.750Z,4.53
2018-07-10T03:57:57.348Z,7.77
2018-07-10T04:00:25.882Z,7.10
2018-07-10T04:02:54.063Z,12.03
2018-07-10T04:05:23.361Z,6.43
2018-07-10T04:07:56.329Z,9.83
2018-07-10T04:10:33.312Z,8.00
2018-07-10T04:13:06.048Z,5.67
2018-07-10T04:15:33.997Z,10.90
2018-07-10T04:18:06.725Z,17.20
2018-07-10T04:21:47.188Z,5.63
2018-07-10T04:24:17.856Z,7.40
2018-07-10T04:27:01.698Z,6.53
2018-07-10T04:29:38.612Z,8.93
2018-07-10T04:32:08.603Z,8.33
2018-07-10T04:34:36.812Z,5.37
2018-07-10T04:37:08.263Z,4.97
2018-07-10T04:39:37.772Z,12.07
2018-07-10T04:42:29.887Z,5.10
2018-07-10T04:45:14.656Z,3.80
2018-07-10T04:47:48.009Z,14.37
2018-07-10T04:50:20.859Z,10.97
2018-07-10T04:52:53.624Z,5.40
2018-07-10T04:55:21.850Z,6.83
2018-07-10T04:57:56.582Z,7.60
2018-07-10T05:00:25.802Z,6.23
2018-07-10T05:02:55.337Z,6.00
2018-07-10T05:05:23.826Z,5.50
2018-07-10T05:07:53.407Z,3.90
2018-07-10T05:10:21.363Z,7.63
2018-07-10T05:12:49.636Z,17.30
2018-07-10T05:15:17.815Z,7.37
2018-07-10T05:17:49.909Z,7.87
2018-07-10T05:20:18.145Z,10.23
2018-07-10T05:22:46.345Z,14.20
2018-07-10T05:25:14.303Z,4.00
2018-07-10T05:27:42.255Z,6.83
2018-07-10T05:30:10.513Z,5.60
2018-07-10T05:32:38.705Z,10.60
2018-07-10T05:35:06.996Z,7.30
2018-07-10T05:37:36.553Z,7.77
2018-07-10T05:40:09.816Z,6.87
2018-07-10T05:42:46.092Z,11.83
2018-07-10T05:45:22.244Z,7.83
2018-07-10T05:47:53.084Z,14.93
2018-07-10T05:50:21.272Z,9.47
2018-07-10T05:52:49.816Z,8.57
2018-07-10T05:55:21.218Z,7.87
2018-07-10T05:57:49.400Z,7.37
2018-07-10T06:00:17.588Z,10.10
2018-07-10T06:02:45.793Z,9.87
2018-07-10T06:05:13.729Z,5.80
2018-07-10T06:07:41.923Z,8.87
2018-07-10T06:10:10.046Z,9.03
2018-07-10T06:12:38.240Z,8.23
2018-07-10T06:15:06.427Z,17.13
2018-07-10T06:17:34.624Z,8.40
2018-07-10T06:20:03.344Z,9.20
2018-07-10T06:22:31.526Z,15.13
2018-07-10T06:24:59.976Z,8.70
2018-07-10T06:27:40.629Z,14.90
2018-07-10T06:30:10.170Z,18.57
2018-07-10T06:33:45.485Z,23.27
2018-07-10T06:36:24.940Z,9.07
2018-07-10T06:38:53.814Z,6.47
2018-07-10T06:41:24.353Z,13.00
2018-07-10T06:43:55.699Z,5.90
2018-07-10T06:46:40.351Z,9.50
2018-07-10T06:49:18.813Z,6.93
2018-07-10T06:51:47.007Z,11.20
2018-07-10T06:54:15.204Z,14.50
2018-07-10T06:56:44.440Z,8.77
2018-07-10T06:59:13.345Z,8.67
2018-07-10T07:01:41.560Z,12.77
2018-07-10T07:04:09.826Z,11.80
2018-07-10T07:06:37.998Z,7.47
2018-07-10T07:09:06.288Z,11.63
2018-07-10T07:11:34.493Z,12.53
2018-07-10T07:14:02.669Z,12.23
2018-07-10T07:16:30.871Z,9.10
2018-07-10T07:18:59.057Z,8.67
2018-07-10T07:21:27.249Z,7.20
2018-07-10T07:23:55.437Z,17.07
2018-07-10T07:26:23.611Z,11.40
2018-07-10T07:28:51.583Z,13.83
2018-07-10T07:31:19.519Z,13.07
2018-07-10T07:33:47.771Z,15.40
2018-07-10T07:36:15.944Z,10.50
2018-07-10T07:38:44.116Z,15.73
2018-07-10T07:41:12.331Z,10.47
2018-07-10T07:43:40.747Z,12.63
2018-07-10T07:46:08.976Z,13.80
2018-07-10T07:48:37.169Z,17.23
2018-07-10T07:51:05.115Z,8.90
2018-07-10T07:53:33.405Z,15.63
2018-07-10T07:56:01.584Z,20.10
2018-07-10T07:58:29.804Z,10.90
2018-07-10T08:00:57.967Z,17.33
2018-07-10T08:03:26.147Z,24.90
2018-07-10T08:05:54.336Z,11.70
2018-07-10T08:08:22.768Z,14.13
2018-07-10T08:10:51.027Z,18.80
2018-07-10T08:13:19.332Z,15.70
2018-07-10T08:15:47.518Z,11.20
2018-07-10T08:18:15.953Z,10.27
2018-07-10T08:20:44.146Z,10.77
2018-07-10T08:23:12.326Z,18.17
2018-07-10T08:25:40.489Z,13.37
2018-07-10T08:28:08.480Z,10.13
2018-07-10T08:30:36.756Z,16.77
2018-07-10T08:33:04.950Z,13.10
2018-07-10T08:35:33.430Z,14.67
2018-07-10T08:38:01.627Z,23.67
2018-07-10T08:40:29.840Z,25.70
2018-07-10T08:42:57.791Z,13.50
2018-07-10T08:45:26.012Z,15.60
2018-07-10T08:47:54.213Z,13.17
2018-07-10T08:50:22.519Z,14.77
2018-07-10T08:52:50.701Z,19.77
2018-07-10T08:55:18.648Z,13.07
2018-07-10T08:57:46.824Z,19.17
2018-07-10T09:00:15.020Z,34.97
2018-07-10T09:02:42.976Z,20.63
2018-07-10T09:05:11.159Z,17.27
2018-07-10T09:07:39.105Z,17.40
2018-07-10T09:10:07.287Z,22.73
2018-07-10T09:12:35.486Z,15.60
2018-07-10T09:15:03.451Z,20.47
2018-07-10T09:17:31.648Z,23.70
2018-07-10T09:20:02.358Z,24.33
2018-07-10T09:22:30.911Z,19.10
2018-07-10T09:24:59.367Z,19.63
2018-07-10T09:27:27.565Z,18.53
2018-07-10T09:29:55.748Z,27.90
2018-07-10T09:32:29.219Z,30.13
2018-07-10T09:34:58.577Z,20.60
2018-07-10T09:37:35.172Z,15.67
2018-07-10T09:40:09.128Z,14.77
2018-07-10T09:42:43.672Z,13.97
2018-07-10T09:45:11.894Z,17.40
2018-07-10T09:47:40.088Z,16.77
2018-07-10T09:50:08.373Z,25.97
2018-07-10T09:52:36.563Z,27.87
2018-07-10T09:55:04.564Z,21.37
2018-07-10T09:57:33.389Z,21.67
2018-07-10T10:00:02.041Z,24.40
2018-07-10T10:02:31.929Z,20.20
2018-07-10T10:05:01.740Z,29.27
2018-07-10T10:07:29.944Z,28.33
2018-07-10T10:09:58.223Z,21.50
2018-07-10T10:12:26.433Z,31.37
2018-07-10T10:14:54.624Z,27.27
2018-07-10T10:17:23.229Z,27.63
2018-07-10T10:19:52.035Z,26.13
2018-07-10T10:22:20.259Z,29.20
2018-07-10T10:24:49.667Z,26.13
2018-07-10T10:27:17.860Z,27.83
2018-07-10T10:29:46.060Z,35.63
2018-07-10T10:32:14.385Z,30.10
2018-07-10T10:34:42.594Z,30.27
2018-07-10T10:37:10.827Z,25.93
2018-07-10T10:39:39.019Z,31.40
2018-07-10T10:42:06.979Z,34.50
2018-07-10T10:44:35.174Z,34.10
2018-07-10T10:47:03.363Z,35.23
2018-07-10T10:49:31.745Z,35.73
2018-07-10T10:52:00.311Z,29.53
2018-07-10T10:54:28.509Z,29.67
2018-07-10T10:56:56.672Z,27.63
2018-07-10T10:59:24.842Z,66.87
2018-07-10T11:01:53.296Z,27.87
2018-07-10T11:04:21.469Z,30.63
2018-07-10T11:06:49.655Z,31.43
2018-07-10T11:09:17.922Z,32.90
2018-07-10T11:11:45.864Z,31.03
2018-07-10T11:14:14.636Z,33.53
2018-07-10T11:16:42.824Z,45.77
2018-07-10T11:19:17.809Z,37.13
2018-07-10T11:22:00.011Z,38.27
2018-07-10T11:24:48.761Z,32.33
2018-07-10T11:27:23.479Z,35.13
2018-07-10T11:29:51.655Z,36.17
2018-07-10T11:32:19.856Z,36.27
2018-07-10T11:34:48.067Z,37.37
2018-07-10T11:37:16.268Z,38.83
2018-07-10T11:39:44.222Z,41.30
2018-07-10T11:42:12.452Z,35.90
2018-07-10T11:44:40.668Z,26.60
2018-07-10T11:47:08.860Z,42.10
2018-07-10T11:49:36.802Z,39.57
2018-07-10T11:52:05.016Z,34.80
2018-07-10T11:54:33.227Z,32.10
2018-07-10T11:57:01.559Z,40.17
2018-07-10T11:59:29.748Z,33.73
2018-07-10T12:01:57.973Z,27.30
2018-07-10T12:04:26.191Z,48.73
2018-07-10T12:06:54.392Z,31.77
2018-07-10T12:09:22.585Z,29.83
2018-07-10T12:11:50.763Z,40.33
2018-07-10T12:14:18.951Z,33.93
2018-07-10T12:16:47.155Z,33.57
2018-07-10T12:19:16.175Z,35.43
2018-07-10T12:21:44.364Z,29.30
2018-07-10T12:24:12.592Z,34.20
2018-07-10T12:26:40.823Z,35.90
2018-07-10T12:29:09.007Z,32.00
2018-07-10T12:31:37.223Z,38.57
2018-07-10T12:34:05.838Z,34.67
2018-07-10T12:36:35.001Z,42.40
2018-07-10T12:39:03.617Z,30.93
2018-07-10T12:41:31.799Z,36.93
2018-07-10T12:43:59.984Z,32.57
2018-07-10T12:46:28.171Z,41.43
2018-07-10T12:48:56.357Z,36.30
2018-07-10T12:51:25.451Z,49.83
2018-07-10T12:53:53.647Z,35.17
2018-07-10T12:56:21.837Z,43.37
2018-07-10T12:58:50.026Z,32.03
2018-07-10T13:01:18.251Z,41.23
2018-07-10T13:03:47.463Z,30.17
2018-07-10T13:06:15.645Z,36.07
2018-07-10T13:08:43.844Z,37.43
2018-07-10T13:11:12.012Z,38.10
2018-07-10T13:13:40.213Z,32.30
2018-07-10T13:16:08.400Z,36.57
2018-07-10T13:18:36.571Z,59.87
2018-07-10T13:21:04.768Z,33.43
2018-07-10T13:23:32.987Z,34.83
2018-07-10T13:26:01.188Z,34.40
2018-07-10T13:28:29.388Z,46.00
2018-07-10T13:30:57.346Z,36.80
2018-07-10T13:33:25.529Z,49.30
2018-07-10T13:35:53.792Z,37.03
2018-07-10T13:38:22.630Z,41.87
2018-07-10T13:40:52.837Z,46.53
2018-07-10T13:43:21.101Z,42.20
2018-07-10T13:45:49.220Z,39.73
2018-07-10T13:48:17.435Z,49.10
2018-07-10T13:50:45.627Z,33.50
2018-07-10T13:53:13.812Z,35.70
2018-07-10T13:55:42.148Z,39.03
2018-07-10T13:58:14.807Z,41.77
2018-07-10T14:00:44.311Z,38.40
2018-07-10T14:03:13.935Z,47.93
2018-07-10T14:05:42.349Z,30.10
2018-07-10T14:08:10.578Z,41.17
2018-07-10T14:10:39.636Z,35.07
2018-07-10T14:13:07.872Z,42.00
2018-07-10T14:15:36.131Z,34.40
2018-07-10T14:18:04.748Z,38.70
2018-07-10T14:20:52.393Z,33.03
2018-07-10T14:23:20.848Z,39.40
2018-07-10T14:25:49.602Z,34.90
2018-07-10T14:28:17.845Z,34.30
2018-07-10T14:30:45.970Z,46.53
2018-07-10T14:33:14.215Z,38.70
2018-07-10T14:35:42.925Z,34.93
2018-07-10T14:38:13.583Z,35.03
2018-07-10T14:40:43.963Z,37.40
2018-07-10T14:43:14.233Z,40.47
2018-07-10T14:45:42.408Z,31.37
2018-07-10T14:48:10.613Z,33.13
2018-07-10T14:50:38.792Z,40.90
2018-07-10T14:53:07.083Z,45.17
2018-07-10T14:55:35.448Z,37.50
2018-07-10T14:58:04.080Z,34.57
2018-07-10T15:00:32.436Z,37.70
2018-07-10T15:03:00.619Z,40.47
2018-07-10T15:05:28.813Z,27.60
2018-07-10T15:07:56.822Z,23.93
2018-07-10T15:10:24.962Z,32.20
2018-07-10T15:12:53.179Z,26.30
2018-07-10T15:15:21.577Z,28.63
2018-07-10T15:17:55.933Z,38.73
2018-07-10T15:20:24.601Z,30.57
2018-07-10T15:22:52.804Z,27.17
2018-07-10T15:25:21.008Z,27.20
2018-07-10T15:27:49.176Z,31.17
2018-07-10T15:30:17.456Z,34.17
2018-07-10T15:32:45.641Z,28.33
2018-07-10T15:35:13.849Z,42.43
2018-07-10T15:37:42.120Z,33.60
2018-07-10T15:40:10.304Z,32.97
2018-07-10T15:42:38.238Z,35.77
2018-07-10T15:45:06.448Z,33.43
2018-07-10T15:47:34.691Z,19.70
2018-07-10T15:50:02.871Z,23.37
2018-07-10T15:52:31.072Z,29.03
2018-07-10T15:54:59.036Z,29.73
2018-07-10T15:57:27.555Z,33.77
2018-07-10T15:59:55.746Z,21.43
2018-07-10T16:02:23.951Z,24.70
2018-07-10T16:04:52.692Z,26.17
2018-07-10T16:07:21.308Z,25.40
2018-07-10T16:09:50.045Z,21.47
2018-07-10T16:12:18.223Z,24.80
2018-07-10T16:14:46.405Z,27.90
2018-07-10T16:17:23.057Z,33.27
2018-07-10T16:20:03.856Z,21.07
2018-07-10T16:22:34.452Z,20.07
2018-07-10T16:25:10.468Z,19.53
2018-07-10T16:27:41.565Z,15.73
2018-07-10T16:30:10.339Z,19.87
2018-07-10T16:32:40.756Z,21.53
2018-07-10T16:35:09.233Z,19.30
2018-07-10T16:37:37.815Z,25.03
2018-07-10T16:40:06.876Z,14.97
2018-07-10T16:42:42.200Z,17.10
2018-07-10T16:45:13.328Z,27.83
2018-07-10T16:47:48.563Z,24.47
2018-07-10T16:50:17.051Z,24.67
2018-07-10T16:52:59.731Z,23.10
2018-07-10T16:55:28.524Z,17.33
2018-07-10T16:57:56.815Z,19.23
2018-07-10T17:00:25.608Z,17.23
2018-07-10T17:02:54.440Z,24.23
2018-07-10T17:05:22.929Z,23.47
2018-07-10T17:07:51.323Z,22.73
2018-07-10T17:10:19.270Z,17.03
2018-07-10T17:12:48.444Z,23.40
2018-07-10T17:15:16.756Z,16.60
2018-07-10T17:17:44.746Z,11.93
2018-07-10T17:20:14.243Z,13.93
2018-07-10T17:22:42.208Z,15.93
2018-07-10T17:25:10.194Z,13.10
2018-07-10T17:27:39.389Z,15.80
2018-07-10T17:30:07.619Z,15.47
2018-07-10T17:32:37.163Z,10.93
2018-07-10T17:35:05.370Z,12.47
2018-07-10T17:37:38.529Z,14.63
2018-07-10T17:40:06.450Z,14.47
2018-07-10T17:42:35.087Z,13.23
2018-07-10T17:45:03.411Z,14.37
2018-07-10T17:47:31.796Z,18.50
2018-07-10T17:50:00.396Z,16.97
2018-07-10T17:52:28.603Z,12.07
2018-07-10T17:54:56.794Z,11.03
2018-07-10T17:57:25.651Z,15.07
2018-07-10T17:59:54.799Z,15.73
2018-07-10T18:02:23.544Z,14.17
2018-07-10T18:04:51.794Z,15.60
2018-07-10T18:07:19.986Z,8.17
2018-07-10T18:09:47.922Z,14.10
2018-07-10T18:12:16.112Z,15.33
2018-07-10T18:14:44.511Z,9.00
2018-07-10T18:17:12.728Z,12.17
2018-07-10T18:19:40.935Z,17.20
2018-07-10T18:22:09.180Z,16.70
2018-07-10T18:24:37.389Z,18.17
2018-07-10T18:27:06.113Z,23.87
2018-07-10T18:29:34.356Z,19.03
2018-07-10T18:32:02.544Z,13.20
2018-07-10T18:34:30.763Z,18.73
2018-07-10T18:36:58.964Z,15.80
2018-07-10T18:39:27.225Z,20.40
2018-07-10T18:41:55.428Z,15.67
2018-07-10T18:44:23.610Z,24.63
2018-07-10T18:46:51.550Z,19.20
2018-07-10T18:49:19.936Z,26.50
2018-07-10T18:51:48.756Z,16.93
2018-07-10T18:54:17.757Z,9.47
2018-07-10T18:56:45.567Z,14.40
2018-07-10T18:59:17.318Z,16.20
2018-07-10T19:01:52.022Z,15.57
2018-07-10T19:04:23.853Z,13.70
2018-07-10T19:06:52.156Z,12.90
2018-07-10T19:09:30.692Z,14.30
2018-07-10T19:11:58.908Z,18.00
2018-07-10T19:14:27.093Z,10.83
2018-07-10T19:16:56.364Z,10.23
2018-07-10T19:19:24.636Z,15.23
2018-07-10T19:22:00.536Z,14.60
2018-07-10T19:24:28.776Z,21.47
2018-07-10T19:26:57.099Z,10.50
2018-07-10T19:30:04.153Z,14.03
2018-07-10T19:32:33.195Z,11.70
2018-07-10T19:35:01.724Z,22.80
2018-07-10T19:37:32.300Z,13.00
2018-07-10T19:40:00.491Z,16.07
2018-07-10T19:42:29.867Z,15.47
2018-07-10T19:44:59.156Z,17.50
2018-07-10T19:47:27.368Z,14.90
2018-07-10T19:49:57.014Z,15.90
2018-07-10T19:52:25.320Z,21.20
2018-07-10T19:54:54.436Z,11.07
2018-07-10T19:58:10.387Z,10.47
2018-07-10T20:00:42.608Z,10.80
2018-07-10T20:03:15.659Z,14.53
2018-07-10T20:05:44.034Z,13.27
2018-07-10T20:08:16.602Z,12.90
2018-07-10T20:11:04.876Z,18.67
2018-07-10T20:13:42.690Z,12.40
2018-07-10T20:16:16.143Z,12.43
2018-07-10T20:20:26.069Z,16.57
2018-07-10T20:23:03.547Z,20.80
2018-07-10T20:25:43.156Z,18.80
2018-07-10T20:28:20.164Z,24.17
2018-07-10T20:31:05.144Z,16.10
2018-07-10T20:33:39.191Z,15.90
2018-07-10T20:36:07.432Z,20.47
2018-07-10T20:38:35.612Z,14.30
2018-07-10T20:41:04.511Z,15.03
2018-07-10T20:43:33.792Z,18.80
2018-07-10T20:46:02.015Z,18.93
2018-07-10T20:48:39.721Z,19.97
2018-07-10T20:51:09.592Z,15.90
2018-07-10T20:53:44.794Z,20.80
2018-07-10T20:56:18.463Z,9.87
2018-07-10T20:58:53.531Z,9.77
2018-07-10T21:01:27.801Z,19.33
2018-07-10T21:03:57.656Z,13.30
2018-07-10T21:07:03.975Z,19.83
2018-07-10T21:09:38.802Z,13.07
2018-07-10T21:12:10.659Z,18.10
2018-07-10T21:15:06.401Z,9.77
2018-07-10T21:18:13.915Z,19.37
2018-07-10T21:20:48.704Z,16.80
2018-07-10T21:23:20.800Z,24.93
2018-07-10T21:25:55.924Z,16.30
2018-07-10T21:28:40.156Z,15.63
2018-07-10T21:31:14.647Z,12.93
2018-07-10T21:33:50.443Z,16.07
2018-07-10T21:36:27.908Z,17.80
2018-07-10T21:39:05.438Z,24.20
2018-07-10T21:41:47.703Z,12.70
2018-07-10T21:46:00.026Z,18.93
2018-07-10T21:48:49.808Z,14.40
2018-07-10T21:51:17.858Z,17.40
2018-07-10T21:53:46.056Z,25.80
2018-07-10T21:56:14.062Z,13.70
2018-07-10T21:58:42.260Z,12.03
2018-07-10T22:01:50.120Z,17.93
2018-07-10T22:04:22.387Z,24.43
2018-07-10T22:06:51.594Z,23.83
2018-07-10T22:09:19.898Z,18.43
2018-07-10T22:11:48.572Z,16.43
2018-07-10T22:14:17.439Z,28.10
2018-07-10T22:16:45.668Z,18.60
2018-07-10T22:19:15.013Z,20.57
2018-07-10T22:21:43.973Z,17.20
2018-07-10T22:24:12.158Z,19.50
2018-07-10T22:26:40.099Z,20.93
2018-07-10T22:29:08.293Z,23.60
2018-07-10T22:31:41.976Z,16.90
2018-07-10T22:34:10.155Z,21.60
2018-07-10T22:36:38.317Z,26.93
2018-07-10T22:39:06.878Z,20.50
2018-07-10T22:41:35.728Z,19.90
2018-07-10T22:44:03.668Z,21.77
2018-07-10T22:46:33.008Z,24.20
2018-07-10T22:49:05.220Z,19.37
2018-07-10T22:51:33.424Z,25.87
2018-07-10T22:54:02.644Z,22.50
2018-07-10T22:56:31.663Z,23.97
2018-07-10T22:59:00.041Z,24.67
2018-07-10T23:01:28.255Z,25.17
2018-07-10T23:03:56.501Z,20.30
2018-07-10T23:06:24.683Z,29.27
2018-07-10T23:08:53.579Z,17.63
2018-07-10T23:11:21.895Z,25.03
2018-07-10T23:13:49.869Z,19.70
2018-07-10T23:16:18.032Z,29.33
2018-07-10T23:18:47.344Z,20.10
2018-07-10T23:21:19.459Z,31.17
2018-07-10T23:23:48.169Z,31.23
2018-07-10T23:26:17.604Z,19.93
2018-07-10T23:28:50.320Z,21.57
2018-07-10T23:31:18.489Z,22.20
2018-07-10T23:33:51.644Z,24.03
2018-07-10T23:36:19.583Z,19.03
2018-07-10T23:39:01.424Z,28.87
2018-07-10T23:41:35.310Z,39.57
2018-07-10T23:44:05.583Z,31.27
2018-07-10T23:46:38.728Z,32.33
2018-07-10T23:49:11.408Z,32.80
2018-07-10T23:51:52.279Z,42.57
2018-07-10T23:54:20.500Z,27.83
2018-07-10T23:56:48.692Z,28.83
2018-07-10T23:59:16.873Z,27.10
